EW2464 Weather Reports


Display with metric or nautical units.
time (UTC)temp
F
wind
direction
speed
MPH
gust
MPH
rain 1hr
in
rain 24hr
in
rain mn
in
humidity
%
barometer
mb
20190216191645 37 323 5.0 13.0 0.00 0.10 0.01 52 1010.2
20190216190149 37 338 6.0 12.0 0.00 0.10 0.01 53 1010.2
20190216184643 36 279 5.0 10.0 0.00 0.12 0.01 53 1010.3
20190216183132 37 332 5.0 14.0 0.00 0.12 0.01 53 1010.2
20190216181632 36 327 7.0 14.0 0.00 0.12 0.01 55 1010.3
20190216180124 36 15 4.0 11.0 0.00 0.12 0.01 55 1010.3
20190216174616 36 296 6.0 14.0 0.00 0.14 0.01 53 1010.5
20190216173132 35 331 6.0 14.0 0.00 0.14 0.01 55 1010.6
20190216171625 35 24 6.0 12.0 0.00 0.14 0.01 54 1010.6
20190216170153 34 327 5.0 17.0 0.00 0.14 0.01 56 1010.7
20190216163157 34 20 5.0 13.0 0.00 0.16 0.01 56 1010.9
20190216161637 36 218 6.0 12.0 0.00 0.16 0.01 54 1010.9
20190216160200 35 9 9.0 14.0 0.00 0.16 0.01 53 1011.0
20190216154613 35 323 6.0 13.0 0.00 0.17 0.01 54 1010.9
20190216153131 35 328 7.0 15.0 0.00 0.17 0.01 54 1010.9
20190216151618 35 305 6.0 19.0 0.00 0.17 0.01 54 1010.7
20190216150145 34 321 6.0 15.0 0.00 0.17 0.01 54 1010.8
20190216144616 34 9 6.0 13.0 0.00 0.20 0.01 54 1010.7
20190216143054 34 325 8.0 13.0 0.00 0.20 0.01 55 1010.6
20190216141554 34 355 6.0 11.0 0.00 0.20 0.01 57 1010.5
20190216140103 33 360 8.0 16.0 0.00 0.20 0.01 57 1010.5
20190216134608 33 311 7.0 15.0 0.00 0.20 0.01 60 1010.4
20190216133112 33 321 4.0 13.0 0.00 0.20 0.01 62 1010.4
20190216131542 32 302 2.0 11.0 0.00 0.20 0.01 64 1010.2
20190216130039 32 355 3.0 8.0 0.00 0.20 0.01 64 1010.1
20190216124556 31 24 2.0 9.0 0.00 0.20 0.01 63 1009.9
20190216123018 31 336 7.0 12.0 0.00 0.20 0.01 65 1009.6
20190216121519 31 351 2.0 8.0 0.00 0.20 0.01 64 1009.4
20190216120011 30 319 1.0 5.0 0.00 0.20 0.01 64 1009.1
20190216114516 30 331 1.0 7.0 0.00 0.20 0.01 63 1008.9
20190216113004 31 333 4.0 11.0 0.00 0.20 0.01 62 1008.7
20190216111503 31 67 3.0 8.0 0.00 0.20 0.01 62 1008.6
20190216110203 31 332 1.0 8.0 0.00 0.20 0.01 60 1008.6
20190216104710 31 286 2.0 6.0 0.00 0.20 0.01 60 1008.6
20190216103143 31 350 4.0 8.0 0.00 0.20 0.01 59 1008.6
20190216101718 32 347 1.0 5.0 0.00 0.20 0.01 59 1008.7
20190216100212 32 16 5.0 12.0 0.00 0.20 0.01 59 1008.6
20190216094623 32 339 2.0 11.0 0.00 0.20 0.01 59 1008.3
20190216093211 32 342 2.0 12.0 0.00 0.20 0.01 59 1008.0
20190216091644 32 298 3.0 10.0 0.00 0.20 0.01 60 1007.8
20190216084607 33 324 4.0 10.0 0.00 0.20 0.01 59 1007.5
20190216083122 33 21 5.0 11.0 0.00 0.20 0.01 59 1007.3
20190216081625 33 9 2.0 9.0 0.00 0.20 0.01 59 1007.2
20190216080110 34 348 4.0 12.0 0.01 0.20 0.01 58 1007.1
20190216074607 34 345 3.0 6.0 0.01 0.20 0.01 59 1007.0
20190216073058 34 339 3.0 8.0 0.01 0.20 0.01 61 1006.8
20190216071527 35 5 4.0 11.0 0.01 0.20 0.01 61 1006.6
20190216070111 35 298 3.0 8.0 0.00 0.19 0.00 62 1006.5
20190216064556 36 328 1.0 10.0 0.00 0.19 0.00 64 1006.5
20190216063031 36 317 3.0 11.0 0.00 0.19 0.00 64 1006.5
20190216061637 37 82 1.0 9.0 0.00 0.19 0.00 66 1006.5
20190216060042 37 333 3.0 8.0 0.00 0.19 0.00 66 1006.6
20190216054516 38 333 4.0 12.0 0.00 0.19 0.00 66 1006.3
20190216053024 38 41 5.0 10.0 0.00 0.19 0.00 67 1006.1
20190216051504 39 331 5.0 11.0 0.00 0.19 0.00 67 1005.9
20190216050153 39 302 5.0 11.0 0.00 0.19 0.00 68 1005.8
20190216044728 39 360 5.0 14.0 0.00 0.19 0.19 69 1005.7
20190216043314 39 296 3.0 8.0 0.00 0.19 0.19 71 1005.6
20190216041652 39 324 3.0 5.0 0.00 0.19 0.19 73 1005.5
20190216040206 40 355 7.0 12.0 0.00 0.19 0.19 74 1005.4
20190216034646 40 344 5.0 10.0 0.00 0.19 0.19 77 1005.4
20190216033128 40 327 4.0 11.0 0.00 0.19 0.19 83 1005.3
20190216031640 41 345 4.0 8.0 0.00 0.19 0.19 90 1005.1
20190216030126 41 336 3.0 10.0 0.00 0.19 0.19 96 1004.9
20190216024707 40 59 1.0 10.0 0.00 0.19 0.19 97 1004.5
20190216023121 39 164 0.0 0.0 0.00 0.19 0.19 96 1003.7
20190216021647 39 164 0.0 2.0 0.00 0.19 0.19 96 1003.5
20190216020220 40 164 0.0 3.0 0.00 0.19 0.19 95 1003.4
20190216014610 40 147 0.0 3.0 0.00 0.19 0.19 95 1003.4
20190216013126 41 147 2.0 4.0 0.00 0.19 0.19 95 1003.3
20190216011709 40 165 1.0 5.0 0.00 0.19 0.19 95 1003.2
20190216010130 39 215 2.0 8.0 0.00 0.19 0.19 96 1003.2
20190216004716 37 172 0.0 1.0 0.00 0.19 0.19 95 1003.2
20190216003202 37 172 0.0 2.0 0.00 0.19 0.19 94 1003.3
20190216001656 38 172 0.0 2.0 0.00 0.19 0.19 94 1003.4
20190216000142 38 172 1.0 2.0 0.00 0.19 0.19 93 1003.6
20190215234636 40 172 0.0 1.0 0.00 0.19 0.19 92 1003.6
20190215233058 41 172 0.0 1.0 0.00 0.19 0.19 91 1003.3
20190215231639 43 172 0.0 3.0 0.00 0.19 0.19 91 1003.4
20190215230127 43 213 0.0 5.0 0.00 0.19 0.19 90 1003.2
20190215224616 44 193 1.0 4.0 0.01 0.19 0.19 87 1003.0
20190215223136 45 188 1.0 5.0 0.01 0.19 0.19 86 1003.0
20190215221736 46 240 1.0 7.0 0.02 0.19 0.19 85 1002.8
20190215220128 46 165 1.0 8.0 0.02 0.19 0.19 85 1002.9
20190215214612 47 161 0.0 7.0 0.02 0.19 0.18 84 1002.9
20190215213139 47 199 0.0 6.0 0.03 0.19 0.18 83 1002.9
20190215211632 48 171 1.0 8.0 0.03 0.18 0.17 81 1003.1
20190215210116 48 161 0.0 8.0 0.04 0.18 0.17 81 1003.4
20190215204549 49 169 3.0 9.0 0.04 0.17 0.16 80 1003.5
20190215203105 49 197 3.0 11.0 0.04 0.16 0.15 80 1003.4
20190215201614 49 227 5.0 15.0 0.03 0.15 0.14 81 1003.4
20190215200044 48 107 4.0 10.0 0.03 0.14 0.13 84 1003.6
20190215194536 44 327 0.0 0.0 0.03 0.14 0.12 86 1003.7
20190215193023 42 327 0.0 2.0 0.02 0.13 0.11 89 1004.0